sensor_id;sensor_type;location;lat;lon;timestamp;pressure;altitude;pressure_sealevel;temperature;humidity
19890;BME280;10107;51.198;6.824;2023-04-25T00:03:37;-21477.47;;;5.98;100.00
19890;BME280;10107;51.198;6.824;2023-04-25T00:07:42;-21478.78;;;6.03;100.00
19890;BME280;10107;51.198;6.824;2023-04-25T00:11:45;-21482.94;;;6.19;100.00
19890;BME280;10107;51.198;6.824;2023-04-25T00:15:47;-21486.25;;;6.32;100.00
19890;BME280;10107;51.198;6.824;2023-04-25T00:19:50;-21489.19;;;6.43;100.00
19890;BME280;10107;51.198;6.824;2023-04-25T00:23:53;-21491.47;;;6.52;100.00
19890;BME280;10107;51.198;6.824;2023-04-25T00:27:56;-21493.47;;;6.60;100.00
19890;BME280;10107;51.198;6.824;2023-04-25T00:31:58;-21495.19;;;6.66;100.00
19890;BME280;10107;51.198;6.824;2023-04-25T00:36:02;-21496.00;;;6.69;100.00
19890;BME280;10107;51.198;6.824;2023-04-25T00:40:05;-21496.38;;;6.71;100.00
19890;BME280;10107;51.198;6.824;2023-04-25T00:44:09;-21496.78;;;6.72;100.00
19890;BME280;10107;51.198;6.824;2023-04-25T00:48:14;-21496.13;;;6.70;100.00
19890;BME280;10107;51.198;6.824;2023-04-25T00:52:17;-21496.38;;;6.71;100.00
19890;BME280;10107;51.198;6.824;2023-04-25T00:56:19;-21496.94;;;6.73;100.00
19890;BME280;10107;51.198;6.824;2023-04-25T01:00:22;-21497.31;;;6.74;100.00
19890;BME280;10107;51.198;6.824;2023-04-25T01:04:24;-21497.72;;;6.76;100.00
19890;BME280;10107;51.198;6.824;2023-04-25T01:08:28;-21497.84;;;6.77;100.00
19890;BME280;10107;51.198;6.824;2023-04-25T01:12:29;-21497.72;;;6.76;100.00
19890;BME280;10107;51.198;6.824;2023-04-25T01:16:31;-21497.06;;;6.73;100.00
19890;BME280;10107;51.198;6.824;2023-04-25T01:20:34;-21498.00;;;6.77;100.00
19890;BME280;10107;51.198;6.824;2023-04-25T01:24:37;-21498.13;;;6.78;100.00
19890;BME280;10107;51.198;6.824;2023-04-25T01:28:40;-21497.59;;;6.76;100.00
19890;BME280;10107;51.198;6.824;2023-04-25T01:32:43;-21496.78;;;6.72;100.00
19890;BME280;10107;51.198;6.824;2023-04-25T01:36:45;-21493.72;;;6.61;100.00
19890;BME280;10107;51.198;6.824;2023-04-25T01:40:49;-21490.41;;;6.48;100.00
19890;BME280;10107;51.198;6.824;2023-04-25T01:44:53;-21487.59;;;6.37;100.00
19890;BME280;10107;51.198;6.824;2023-04-25T01:48:55;-21484.41;;;6.25;100.00
19890;BME280;10107;51.198;6.824;2023-04-25T01:52:57;-21483.31;;;6.21;100.00
19890;BME280;10107;51.198;6.824;2023-04-25T01:57:00;-21482.78;;;6.19;100.00
19890;BME280;10107;51.198;6.824;2023-04-25T02:01:03;-21484.78;;;6.26;100.00
19890;BME280;10107;51.198;6.824;2023-04-25T02:05:12;-21486.53;;;6.33;100.00
19890;BME280;10107;51.198;6.824;2023-04-25T02:09:16;-21488.13;;;6.39;100.00
19890;BME280;10107;51.198;6.824;2023-04-25T02:13:24;-21487.31;;;6.36;100.00
19890;BME280;10107;51.198;6.824;2023-04-25T02:17:25;-21487.19;;;6.36;100.00
19890;BME280;10107;51.198;6.824;2023-04-25T02:21:27;-21487.84;;;6.38;100.00
19890;BME280;10107;51.198;6.824;2023-04-25T02:25:31;-21488.00;;;6.39;100.00
19890;BME280;10107;51.198;6.824;2023-04-25T02:29:34;-21487.06;;;6.35;100.00
19890;BME280;10107;51.198;6.824;2023-04-25T02:33:36;-21487.47;;;6.37;100.00
19890;BME280;10107;51.198;6.824;2023-04-25T02:37:40;-21487.47;;;6.37;100.00
19890;BME280;10107;51.198;6.824;2023-04-25T02:41:42;-21486.78;;;6.34;100.00
19890;BME280;10107;51.198;6.824;2023-04-25T02:45:45;-21485.47;;;6.29;100.00
19890;BME280;10107;51.198;6.824;2023-04-25T02:49:46;-21482.53;;;6.18;100.00
19890;BME280;10107;51.198;6.824;2023-04-25T02:53:48;-21482.00;;;6.15;100.00
19890;BME280;10107;51.198;6.824;2023-04-25T02:57:50;-21482.25;;;6.17;100.00
19890;BME280;10107;51.198;6.824;2023-04-25T03:02:04;-21482.94;;;6.19;100.00
19890;BME280;10107;51.198;6.824;2023-04-25T03:06:06;-21484.00;;;6.23;100.00
19890;BME280;10107;51.198;6.824;2023-04-25T03:10:08;-21484.13;;;6.24;100.00
19890;BME280;10107;51.198;6.824;2023-04-25T03:14:11;-21484.78;;;6.26;100.00
19890;BME280;10107;51.198;6.824;2023-04-25T03:18:14;-21485.47;;;6.29;100.00
19890;BME280;10107;51.198;6.824;2023-04-25T03:22:17;-21485.19;;;6.28;100.00
19890;BME280;10107;51.198;6.824;2023-04-25T03:26:19;-21485.19;;;6.28;100.00
19890;BME280;10107;51.198;6.824;2023-04-25T03:30:22;-21484.00;;;6.23;100.00
19890;BME280;10107;51.198;6.824;2023-04-25T03:34:25;-21484.41;;;6.25;100.00
19890;BME280;10107;51.198;6.824;2023-04-25T03:38:27;-21483.47;;;6.21;100.00
19890;BME280;10107;51.198;6.824;2023-04-25T03:42:29;-21483.59;;;6.22;100.00
19890;BME280;10107;51.198;6.824;2023-04-25T03:46:31;-21483.72;;;6.22;100.00
19890;BME280;10107;51.198;6.824;2023-04-25T03:50:34;-21482.66;;;6.18;100.00
19890;BME280;10107;51.198;6.824;2023-04-25T03:54:37;-21482.53;;;6.18;100.00
19890;BME280;10107;51.198;6.824;2023-04-25T03:58:42;-21483.19;;;6.20;100.00
19890;BME280;10107;51.198;6.824;2023-04-25T04:02:44;-21482.53;;;6.18;100.00
19890;BME280;10107;51.198;6.824;2023-04-25T04:06:49;-21481.06;;;6.12;100.00
19890;BME280;10107;51.198;6.824;2023-04-25T04:10:57;-21479.06;;;6.04;100.00
19890;BME280;10107;51.198;6.824;2023-04-25T04:15:01;-21477.47;;;5.98;100.00
19890;BME280;10107;51.198;6.824;2023-04-25T04:19:04;-21476.91;;;5.96;100.00
19890;BME280;10107;51.198;6.824;2023-04-25T04:23:08;-21475.59;;;5.91;100.00
19890;BME280;10107;51.198;6.824;2023-04-25T04:27:10;-21474.78;;;5.88;100.00
19890;BME280;10107;51.198;6.824;2023-04-25T04:31:21;-21476.00;;;5.92;100.00
19890;BME280;10107;51.198;6.824;2023-04-25T04:35:24;-21477.19;;;5.97;100.00
19890;BME280;10107;51.198;6.824;2023-04-25T04:39:28;-21479.72;;;6.07;100.00
19890;BME280;10107;51.198;6.824;2023-04-25T04:43:38;-21481.47;;;6.13;100.00
19890;BME280;10107;51.198;6.824;2023-04-25T04:48:07;-21484.13;;;6.24;100.00
19890;BME280;10107;51.198;6.824;2023-04-25T04:52:28;-21486.25;;;6.32;100.00
19890;BME280;10107;51.198;6.824;2023-04-25T04:56:39;-21489.59;;;6.45;100.00
19890;BME280;10107;51.198;6.824;2023-04-25T05:00:48;-21491.31;;;6.51;100.00
19890;BME280;10107;51.198;6.824;2023-04-25T05:05:08;-21494.53;;;6.64;100.00
19890;BME280;10107;51.198;6.824;2023-04-25T05:09:30;-21500.91;;;6.88;100.00
19890;BME280;10107;51.198;6.824;2023-04-25T05:13:45;-21508.38;;;7.17;100.00
19890;BME280;10107;51.198;6.824;2023-04-25T05:18:11;-21514.78;;;7.42;100.00
19890;BME280;10107;51.198;6.824;2023-04-25T05:22:35;-21524.09;;;7.78;100.00
19890;BME280;10107;51.198;6.824;2023-04-25T05:26:54;-21527.81;;;7.92;100.00
19890;BME280;10107;51.198;6.824;2023-04-25T05:31:16;-21526.22;;;7.86;100.00
19890;BME280;10107;51.198;6.824;2023-04-25T05:35:24;-21523.28;;;7.74;100.00
19890;BME280;10107;51.198;6.824;2023-04-25T05:39:26;-21523.81;;;7.77;100.00
19890;BME280;10107;51.198;6.824;2023-04-25T05:43:46;-21525.69;;;7.84;100.00
19890;BME280;10107;51.198;6.824;2023-04-25T05:48:26;-21532.31;;;8.09;100.00
19890;BME280;10107;51.198;6.824;2023-04-25T05:52:51;-21538.03;;;8.31;100.00
19890;BME280;10107;51.198;6.824;2023-04-25T05:57:03;-21546.69;;;8.65;100.00
19890;BME280;10107;51.198;6.824;2023-04-25T06:01:05;-21574.16;;;9.71;96.77
19890;BME280;10107;51.198;6.824;2023-04-25T06:05:09;-21590.47;;;10.34;91.58
19890;BME280;10107;51.198;6.824;2023-04-25T06:09:11;-21586.09;;;10.17;90.26
19890;BME280;10107;51.198;6.824;2023-04-25T06:13:12;-21582.66;;;10.04;91.00
19890;BME280;10107;51.198;6.824;2023-04-25T06:17:14;-21631.50;;;11.93;80.82
19890;BME280;10107;51.198;6.824;2023-04-25T06:21:17;-21655.16;;;12.85;74.96
19890;BME280;10107;51.198;6.824;2023-04-25T06:25:19;-21701.16;;;14.64;67.41
19890;BME280;10107;51.198;6.824;2023-04-25T06:29:22;-21748.84;;;16.50;57.89
19890;BME280;10107;51.198;6.824;2023-04-25T06:33:24;-21757.38;;;16.83;56.61
19890;BME280;10107;51.198;6.824;2023-04-25T06:37:28;-21740.84;;;16.19;55.20
19890;BME280;10107;51.198;6.824;2023-04-25T06:41:30;-21720.75;;;15.40;57.42
19890;BME280;10107;51.198;6.824;2023-04-25T06:45:35;-21711.66;;;15.05;57.65
19890;BME280;10107;51.198;6.824;2023-04-25T06:49:37;-21682.19;;;13.90;63.26
19890;BME280;10107;51.198;6.824;2023-04-25T06:53:41;-21689.28;;;14.18;61.98
19890;BME280;10107;51.198;6.824;2023-04-25T06:57:49;-21705.09;;;14.79;59.58
19890;BME280;10107;51.198;6.824;2023-04-25T07:02:19;-21706.53;;;14.85;60.30
19890;BME280;10107;51.198;6.824;2023-04-25T07:06:23;-21702.19;;;14.68;58.54
19890;BME280;10107;51.198;6.824;2023-04-25T07:10:28;-21692.84;;;14.32;60.55
19890;BME280;10107;51.198;6.824;2023-04-25T07:14:31;-21758.16;;;16.87;54.24
19890;BME280;10107;51.198;6.824;2023-04-25T07:18:34;-21748.06;;;16.47;54.11
19890;BME280;10107;51.198;6.824;2023-04-25T07:22:36;-21745.44;;;16.37;52.71
19890;BME280;10107;51.198;6.824;2023-04-25T07:26:40;-21681.53;;;13.88;58.87
19890;BME280;10107;51.198;6.824;2023-04-25T07:31:00;-21730.72;;;15.79;54.86
19890;BME280;10107;51.198;6.824;2023-04-25T07:35:03;-21691.13;;;14.25;57.88
19890;BME280;10107;51.198;6.824;2023-04-25T07:39:04;-21660.69;;;13.06;62.24
19890;BME280;10107;51.198;6.824;2023-04-25T07:43:08;-21639.81;;;12.25;65.28
19890;BME280;10107;51.198;6.824;2023-04-25T07:47:32;-21621.97;;;11.56;67.91
19890;BME280;10107;51.198;6.824;2023-04-25T07:51:35;-21612.19;;;11.18;69.80
19890;BME280;10107;51.198;6.824;2023-04-25T07:55:41;-21611.94;;;11.17;69.52
19890;BME280;10107;51.198;6.824;2023-04-25T07:59:50;-21607.28;;;10.99;71.47
19890;BME280;10107;51.198;6.824;2023-04-25T08:03:53;-21592.19;;;10.41;73.10
19890;BME280;10107;51.198;6.824;2023-04-25T08:08:00;-21582.91;;;10.05;73.76
19890;BME280;10107;51.198;6.824;2023-04-25T08:12:03;-21602.41;;;10.80;72.56
19890;BME280;10107;51.198;6.824;2023-04-25T08:16:08;-21677.69;;;13.73;62.53
19890;BME280;10107;51.198;6.824;2023-04-25T08:20:11;-21728.63;;;15.71;56.83
19890;BME280;10107;51.198;6.824;2023-04-25T08:24:14;-21803.69;;;18.65;47.92
19890;BME280;10107;51.198;6.824;2023-04-25T08:28:17;-21812.72;;;19.01;41.24
19890;BME280;10107;51.198;6.824;2023-04-25T08:32:21;-21741.09;;;16.20;45.00
19890;BME280;10107;51.198;6.824;2023-04-25T08:36:40;-21684.56;;;13.99;48.25
19890;BME280;10107;51.198;6.824;2023-04-25T08:40:54;-21660.03;;;13.04;52.35
19890;BME280;10107;51.198;6.824;2023-04-25T08:44:57;-21653.03;;;12.77;53.42
19890;BME280;10107;51.198;6.824;2023-04-25T08:49:07;-21767.31;;;17.22;43.34
19890;BME280;10107;51.198;6.824;2023-04-25T08:53:12;-21835.44;;;19.90;35.48
19890;BME280;10107;51.198;6.824;2023-04-25T08:57:17;-21885.94;;;21.89;32.37
19890;BME280;10107;51.198;6.824;2023-04-25T09:01:20;-21932.50;;;23.73;29.29
19890;BME280;10107;51.198;6.824;2023-04-25T09:05:29;-21954.75;;;24.61;25.92
19890;BME280;10107;51.198;6.824;2023-04-25T09:09:31;-21956.81;;;24.69;26.23
19890;BME280;10107;51.198;6.824;2023-04-25T09:13:32;-21832.31;;;19.77;29.73
19890;BME280;10107;51.198;6.824;2023-04-25T09:17:55;-21760.50;;;16.96;34.44
19890;BME280;10107;51.198;6.824;2023-04-25T09:22:00;-21730.06;;;15.77;38.15
19890;BME280;10107;51.198;6.824;2023-04-25T09:26:06;-21707.47;;;14.89;40.26
19890;BME280;10107;51.198;6.824;2023-04-25T09:30:09;-21686.53;;;14.07;42.91
19890;BME280;10107;51.198;6.824;2023-04-25T09:34:26;-21688.25;;;14.14;45.52
19890;BME280;10107;51.198;6.824;2023-04-25T09:38:36;-21690.09;;;14.21;44.70
19890;BME280;10107;51.198;6.824;2023-04-25T09:42:45;-21744.91;;;16.35;41.43
19890;BME280;10107;51.198;6.824;2023-04-25T09:46:49;-21841.28;;;20.13;34.02
19890;BME280;10107;51.198;6.824;2023-04-25T09:51:07;-21808.00;;;18.82;32.92
19890;BME280;10107;51.198;6.824;2023-04-25T09:55:11;-21755.00;;;16.74;36.58
19890;BME280;10107;51.198;6.824;2023-04-25T09:59:14;-21717.06;;;15.26;39.90
19890;BME280;10107;51.198;6.824;2023-04-25T10:03:17;-21698.50;;;14.54;40.80
19890;BME280;10107;51.198;6.824;2023-04-25T10:07:33;-21701.00;;;14.63;40.49
19890;BME280;10107;51.198;6.824;2023-04-25T10:11:44;-21774.91;;;17.52;38.85
19890;BME280;10107;51.198;6.824;2023-04-25T10:15:46;-21764.69;;;17.12;35.77
19890;BME280;10107;51.198;6.824;2023-04-25T10:19:49;-21724.41;;;15.55;37.70
19890;BME280;10107;51.198;6.824;2023-04-25T10:23:51;-21714.56;;;15.16;39.89
19890;BME280;10107;51.198;6.824;2023-04-25T10:27:54;-21709.16;;;14.95;40.44
19890;BME280;10107;51.198;6.824;2023-04-25T10:31:56;-21704.81;;;14.78;40.94
19890;BME280;10107;51.198;6.824;2023-04-25T10:35:58;-21691.00;;;14.24;42.02
19890;BME280;10107;51.198;6.824;2023-04-25T10:40:08;-21673.22;;;13.55;42.92
19890;BME280;10107;51.198;6.824;2023-04-25T10:44:13;-21663.59;;;13.18;42.77
19890;BME280;10107;51.198;6.824;2023-04-25T10:48:25;-21662.53;;;13.14;42.01
19890;BME280;10107;51.198;6.824;2023-04-25T10:52:27;-21678.75;;;13.77;41.79
19890;BME280;10107;51.198;6.824;2023-04-25T10:56:33;-21703.25;;;14.72;39.60
19890;BME280;10107;51.198;6.824;2023-04-25T11:00:37;-21726.13;;;15.61;37.61
19890;BME280;10107;51.198;6.824;2023-04-25T11:04:41;-21752.91;;;16.66;33.39
19890;BME280;10107;51.198;6.824;2023-04-25T11:08:48;-21839.34;;;20.05;29.43
19890;BME280;10107;51.198;6.824;2023-04-25T11:12:50;-21890.75;;;22.08;27.81
19890;BME280;10107;51.198;6.824;2023-04-25T11:16:55;-21863.16;;;20.99;26.98
19890;BME280;10107;51.198;6.824;2023-04-25T11:20:57;-21869.94;;;21.26;27.56
19890;BME280;10107;51.198;6.824;2023-04-25T11:25:04;-21873.44;;;21.40;28.27
19890;BME280;10107;51.198;6.824;2023-04-25T11:29:06;-21918.50;;;23.18;26.68
19890;BME280;10107;51.198;6.824;2023-04-25T11:33:10;-21861.09;;;20.91;26.07
19890;BME280;10107;51.198;6.824;2023-04-25T11:37:12;-21808.28;;;18.83;30.18
19890;BME280;10107;51.198;6.824;2023-04-25T11:41:14;-21789.31;;;18.09;30.79
19890;BME280;10107;51.198;6.824;2023-04-25T11:45:16;-21784.34;;;17.89;32.67
19890;BME280;10107;51.198;6.824;2023-04-25T11:49:20;-21806.97;;;18.78;32.33
19890;BME280;10107;51.198;6.824;2023-04-25T11:53:22;-21842.34;;;20.17;29.58
19890;BME280;10107;51.198;6.824;2023-04-25T11:57:25;-21878.41;;;21.59;27.95
19890;BME280;10107;51.198;6.824;2023-04-25T12:01:28;-21891.78;;;22.12;28.78
19890;BME280;10107;51.198;6.824;2023-04-25T12:05:31;-21909.94;;;22.84;27.27
19890;BME280;10107;51.198;6.824;2023-04-25T12:09:34;-21912.03;;;22.92;26.65
19890;BME280;10107;51.198;6.824;2023-04-25T12:13:35;-21863.56;;;21.01;28.32
19890;BME280;10107;51.198;6.824;2023-04-25T12:17:38;-21820.41;;;19.31;31.63
19890;BME280;10107;51.198;6.824;2023-04-25T12:21:41;-21754.47;;;16.72;34.62
19890;BME280;10107;51.198;6.824;2023-04-25T12:25:44;-21705.34;;;14.80;38.20
19890;BME280;10107;51.198;6.824;2023-04-25T12:29:51;-21675.06;;;13.62;42.23
19890;BME280;10107;51.198;6.824;2023-04-25T12:33:53;-21655.94;;;12.88;47.90
19890;BME280;10107;51.198;6.824;2023-04-25T12:37:56;-21640.22;;;12.27;57.36
19890;BME280;10107;51.198;6.824;2023-04-25T12:41:58;-21621.31;;;11.54;67.43
19890;BME280;10107;51.198;6.824;2023-04-25T12:46:00;-21628.47;;;11.81;64.83
19890;BME280;10107;51.198;6.824;2023-04-25T12:50:02;-21670.84;;;13.46;58.87
19890;BME280;10107;51.198;6.824;2023-04-25T12:54:05;-21712.59;;;15.09;50.33
19890;BME280;10107;51.198;6.824;2023-04-25T12:58:07;-21729.28;;;15.74;47.76
19890;BME280;10107;51.198;6.824;2023-04-25T13:02:09;-21745.44;;;16.37;46.71
19890;BME280;10107;51.198;6.824;2023-04-25T13:06:11;-21754.75;;;16.73;44.11
19890;BME280;10107;51.198;6.824;2023-04-25T13:10:14;-21758.53;;;16.88;41.43
19890;BME280;10107;51.198;6.824;2023-04-25T13:14:16;-21745.56;;;16.37;41.48
19890;BME280;10107;51.198;6.824;2023-04-25T13:18:18;-21731.38;;;15.82;42.71
19890;BME280;10107;51.198;6.824;2023-04-25T13:22:20;-21713.50;;;15.12;44.51
19890;BME280;10107;51.198;6.824;2023-04-25T13:26:23;-21689.03;;;14.17;44.83
19890;BME280;10107;51.198;6.824;2023-04-25T13:30:25;-21667.28;;;13.32;46.48
19890;BME280;10107;51.198;6.824;2023-04-25T13:34:27;-21655.69;;;12.87;48.50
19890;BME280;10107;51.198;6.824;2023-04-25T13:38:28;-21658.84;;;12.99;47.77
19890;BME280;10107;51.198;6.824;2023-04-25T13:42:31;-21675.72;;;13.65;47.87
19890;BME280;10107;51.198;6.824;2023-04-25T13:46:33;-21693.38;;;14.34;46.85
19890;BME280;10107;51.198;6.824;2023-04-25T13:50:35;-21692.84;;;14.32;46.06
19890;BME280;10107;51.198;6.824;2023-04-25T13:54:36;-21686.41;;;14.06;43.38
19890;BME280;10107;51.198;6.824;2023-04-25T13:58:40;-21684.56;;;13.99;42.38
19890;BME280;10107;51.198;6.824;2023-04-25T14:02:41;-21687.44;;;14.11;42.49
19890;BME280;10107;51.198;6.824;2023-04-25T14:06:43;-21697.31;;;14.49;40.33
19890;BME280;10107;51.198;6.824;2023-04-25T14:10:45;-21714.56;;;15.16;39.98
19890;BME280;10107;51.198;6.824;2023-04-25T14:14:48;-21733.09;;;15.89;38.95
19890;BME280;10107;51.198;6.824;2023-04-25T14:18:49;-21723.75;;;15.52;39.34
19890;BME280;10107;51.198;6.824;2023-04-25T14:22:51;-21730.84;;;15.80;40.38
19890;BME280;10107;51.198;6.824;2023-04-25T14:26:54;-21726.25;;;15.62;40.30
19890;BME280;10107;51.198;6.824;2023-04-25T14:30:58;-21716.94;;;15.25;41.69
19890;BME280;10107;51.198;6.824;2023-04-25T14:35:00;-21698.63;;;14.54;43.23
19890;BME280;10107;51.198;6.824;2023-04-25T14:39:03;-21680.19;;;13.82;43.88
19890;BME280;10107;51.198;6.824;2023-04-25T14:43:05;-21665.44;;;13.25;46.02
19890;BME280;10107;51.198;6.824;2023-04-25T14:47:08;-21659.75;;;13.03;47.39
19890;BME280;10107;51.198;6.824;2023-04-25T14:51:10;-21652.91;;;12.76;47.96
19890;BME280;10107;51.198;6.824;2023-04-25T14:55:12;-21657.00;;;12.92;49.65
19890;BME280;10107;51.198;6.824;2023-04-25T14:59:14;-21675.72;;;13.65;48.63
19890;BME280;10107;51.198;6.824;2023-04-25T15:03:17;-21686.91;;;14.09;47.16
19890;BME280;10107;51.198;6.824;2023-04-25T15:07:19;-21683.50;;;13.95;45.71
19890;BME280;10107;51.198;6.824;2023-04-25T15:11:20;-21668.47;;;13.37;46.10
19890;BME280;10107;51.198;6.824;2023-04-25T15:15:22;-21657.66;;;12.95;46.65
19890;BME280;10107;51.198;6.824;2023-04-25T15:19:25;-21644.97;;;12.45;45.00
19890;BME280;10107;51.198;6.824;2023-04-25T15:23:27;-21643.41;;;12.39;44.49
19890;BME280;10107;51.198;6.824;2023-04-25T15:27:29;-21638.78;;;12.21;44.29
19890;BME280;10107;51.198;6.824;2023-04-25T15:31:30;-21630.97;;;11.91;44.87
19890;BME280;10107;51.198;6.824;2023-04-25T15:35:33;-21626.34;;;11.73;45.66
19890;BME280;10107;51.198;6.824;2023-04-25T15:39:35;-21625.03;;;11.68;46.50
19890;BME280;10107;51.198;6.824;2023-04-25T15:43:37;-21625.69;;;11.71;46.63
19890;BME280;10107;51.198;6.824;2023-04-25T15:47:40;-21638.78;;;12.21;47.73
19890;BME280;10107;51.198;6.824;2023-04-25T15:51:43;-21646.81;;;12.53;47.55
19890;BME280;10107;51.198;6.824;2023-04-25T15:55:46;-21641.03;;;12.30;46.08
19890;BME280;10107;51.198;6.824;2023-04-25T15:59:48;-21635.59;;;12.09;46.63
19890;BME280;10107;51.198;6.824;2023-04-25T16:03:52;-21638.50;;;12.20;48.24
19890;BME280;10107;51.198;6.824;2023-04-25T16:07:58;-21645.50;;;12.47;47.23
19890;BME280;10107;51.198;6.824;2023-04-25T16:12:00;-21648.41;;;12.59;45.03
19890;BME280;10107;51.198;6.824;2023-04-25T16:16:02;-21648.41;;;12.59;43.15
19890;BME280;10107;51.198;6.824;2023-04-25T16:20:05;-21643.25;;;12.39;42.06
19890;BME280;10107;51.198;6.824;2023-04-25T16:24:12;-21635.19;;;12.07;43.03
19890;BME280;10107;51.198;6.824;2023-04-25T16:28:13;-21629.91;;;11.87;44.80
19890;BME280;10107;51.198;6.824;2023-04-25T16:32:15;-21625.16;;;11.68;48.29
19890;BME280;10107;51.198;6.824;2023-04-25T16:36:17;-21616.44;;;11.35;51.11
19890;BME280;10107;51.198;6.824;2023-04-25T16:40:21;-21605.44;;;10.92;51.44
19890;BME280;10107;51.198;6.824;2023-04-25T16:44:22;-21601.88;;;10.78;51.23
19890;BME280;10107;51.198;6.824;2023-04-25T16:48:24;-21600.28;;;10.72;49.88
19890;BME280;10107;51.198;6.824;2023-04-25T16:52:26;-21605.31;;;10.92;49.09
19890;BME280;10107;51.198;6.824;2023-04-25T16:56:29;-21613.25;;;11.22;47.12
19890;BME280;10107;51.198;6.824;2023-04-25T17:00:33;-21624.38;;;11.65;46.04
19890;BME280;10107;51.198;6.824;2023-04-25T17:04:35;-21631.78;;;11.94;46.86
19890;BME280;10107;51.198;6.824;2023-04-25T17:08:37;-21636.13;;;12.11;44.50
19890;BME280;10107;51.198;6.824;2023-04-25T17:12:41;-21638.50;;;12.20;45.77
19890;BME280;10107;51.198;6.824;2023-04-25T17:16:45;-21639.28;;;12.23;44.08
19890;BME280;10107;51.198;6.824;2023-04-25T17:20:46;-21635.72;;;12.09;43.21
19890;BME280;10107;51.198;6.824;2023-04-25T17:24:48;-21630.19;;;11.88;43.51
19890;BME280;10107;51.198;6.824;2023-04-25T17:28:52;-21628.31;;;11.81;44.17
19890;BME280;10107;51.198;6.824;2023-04-25T17:32:54;-21624.09;;;11.64;45.89
19890;BME280;10107;51.198;6.824;2023-04-25T17:36:58;-21617.47;;;11.39;46.82
19890;BME280;10107;51.198;6.824;2023-04-25T17:41:00;-21606.75;;;10.97;47.57
19890;BME280;10107;51.198;6.824;2023-04-25T17:45:05;-21595.25;;;10.53;48.16
19890;BME280;10107;51.198;6.824;2023-04-25T17:49:07;-21589.16;;;10.29;49.36
19890;BME280;10107;51.198;6.824;2023-04-25T17:53:11;-21582.66;;;10.04;50.46
19890;BME280;10107;51.198;6.824;2023-04-25T17:57:13;-21578.69;;;9.88;50.67
19890;BME280;10107;51.198;6.824;2023-04-25T18:01:16;-21576.03;;;9.78;53.02
19890;BME280;10107;51.198;6.824;2023-04-25T18:05:18;-21572.72;;;9.65;52.61
19890;BME280;10107;51.198;6.824;2023-04-25T18:09:20;-21572.31;;;9.64;53.89
19890;BME280;10107;51.198;6.824;2023-04-25T18:13:24;-21572.31;;;9.64;53.60
19890;BME280;10107;51.198;6.824;2023-04-25T18:17:27;-21571.38;;;9.60;54.45
19890;BME280;10107;51.198;6.824;2023-04-25T18:21:29;-21569.78;;;9.54;54.13
19890;BME280;10107;51.198;6.824;2023-04-25T18:25:31;-21567.66;;;9.46;54.52
19890;BME280;10107;51.198;6.824;2023-04-25T18:29:33;-21566.19;;;9.40;54.33
19890;BME280;10107;51.198;6.824;2023-04-25T18:33:38;-21565.41;;;9.37;55.70
19890;BME280;10107;51.198;6.824;2023-04-25T18:37:39;-21561.56;;;9.22;54.21
19890;BME280;10107;51.198;6.824;2023-04-25T18:41:42;-21556.38;;;9.02;55.11
19890;BME280;10107;51.198;6.824;2023-04-25T18:45:44;-21551.06;;;8.82;55.14
19890;BME280;10107;51.198;6.824;2023-04-25T18:49:47;-21545.75;;;8.61;55.70
19890;BME280;10107;51.198;6.824;2023-04-25T18:53:50;-21541.09;;;8.43;56.50
19890;BME280;10107;51.198;6.824;2023-04-25T18:57:52;-21537.38;;;8.29;57.58
19890;BME280;10107;51.198;6.824;2023-04-25T19:01:54;-21535.00;;;8.20;57.56
19890;BME280;10107;51.198;6.824;2023-04-25T19:05:57;-21531.00;;;8.04;61.52
19890;BME280;10107;51.198;6.824;2023-04-25T19:09:59;-21527.53;;;7.91;63.92
19890;BME280;10107;51.198;6.824;2023-04-25T19:14:01;-21526.59;;;7.87;66.00
19890;BME280;10107;51.198;6.824;2023-04-25T19:18:02;-21525.00;;;7.81;67.13
19890;BME280;10107;51.198;6.824;2023-04-25T19:22:05;-21523.56;;;7.76;67.82
19890;BME280;10107;51.198;6.824;2023-04-25T19:26:08;-21523.03;;;7.73;69.50
19890;BME280;10107;51.198;6.824;2023-04-25T19:30:10;-21522.09;;;7.70;69.54
19890;BME280;10107;51.198;6.824;2023-04-25T19:34:13;-21520.75;;;7.65;68.80
19890;BME280;10107;51.198;6.824;2023-04-25T19:38:16;-21519.16;;;7.59;68.75
19890;BME280;10107;51.198;6.824;2023-04-25T19:42:17;-21517.84;;;7.53;69.66
19890;BME280;10107;51.198;6.824;2023-04-25T19:46:19;-21515.84;;;7.46;69.34
19890;BME280;10107;51.198;6.824;2023-04-25T19:50:21;-21513.97;;;7.39;68.20
19890;BME280;10107;51.198;6.824;2023-04-25T19:54:24;-21511.84;;;7.30;65.77
19890;BME280;10107;51.198;6.824;2023-04-25T19:58:29;-21509.72;;;7.22;66.75
19890;BME280;10107;51.198;6.824;2023-04-25T20:02:31;-21507.03;;;7.12;67.15
19890;BME280;10107;51.198;6.824;2023-04-25T20:06:37;-21505.84;;;7.07;68.04
19890;BME280;10107;51.198;6.824;2023-04-25T20:10:41;-21504.38;;;7.02;68.87
19890;BME280;10107;51.198;6.824;2023-04-25T20:14:44;-21503.19;;;6.97;69.44
19890;BME280;10107;51.198;6.824;2023-04-25T20:18:48;-21502.53;;;6.94;70.36
19890;BME280;10107;51.198;6.824;2023-04-25T20:22:53;-21500.53;;;6.87;70.51
19890;BME280;10107;51.198;6.824;2023-04-25T20:26:56;-21498.91;;;6.81;70.87
19890;BME280;10107;51.198;6.824;2023-04-25T20:30:58;-21497.31;;;6.74;71.79
19890;BME280;10107;51.198;6.824;2023-04-25T20:35:03;-21495.72;;;6.68;73.14
19890;BME280;10107;51.198;6.824;2023-04-25T20:39:05;-21494.78;;;6.65;72.82
19890;BME280;10107;51.198;6.824;2023-04-25T20:43:08;-21493.47;;;6.60;73.70
19890;BME280;10107;51.198;6.824;2023-04-25T20:47:13;-21491.72;;;6.53;74.21
19890;BME280;10107;51.198;6.824;2023-04-25T20:51:17;-21488.78;;;6.42;74.80
19890;BME280;10107;51.198;6.824;2023-04-25T20:55:20;-21487.06;;;6.35;75.93
19890;BME280;10107;51.198;6.824;2023-04-25T20:59:26;-21485.47;;;6.29;76.68
19890;BME280;10107;51.198;6.824;2023-04-25T21:03:29;-21483.72;;;6.22;77.75
19890;BME280;10107;51.198;6.824;2023-04-25T21:07:31;-21480.94;;;6.11;78.69
19890;BME280;10107;51.198;6.824;2023-04-25T21:11:34;-21479.31;;;6.05;79.89
19890;BME280;10107;51.198;6.824;2023-04-25T21:15:42;-21476.66;;;5.95;81.04
19890;BME280;10107;51.198;6.824;2023-04-25T21:19:45;-21474.78;;;5.88;81.36
19890;BME280;10107;51.198;6.824;2023-04-25T21:23:47;-21471.19;;;5.74;82.94